WAT462 KAPA-KOGA
Flight info
| Callsign | WAT462 |
|---|---|
| Flight time | 0h 44m |
| Altitude | 21000 |
| Route | PLAIN2 AKO SAE |
| Aircraft | B60T/L-SDFGRY/C |
Departure
| Time | 2026-04-26 23:45 |
|---|---|
| Airport | Centennial Airport (KAPA) |
Arrival
| Time | 2026-04-27 00:30 |
|---|---|
| Airport | Ogallala Municipal Airport Searle Field (KOGA) |
| Time | Latitude | Longitude | Altitude | Speed | Heading |
|---|---|---|---|---|---|
| 2026-04-26 23:34 | 39.57855 | -104.84853 | 5816 ft | 0 kts | 87° |
| 2026-04-26 23:42 | 39.57855 | -104.84849 | 5816 ft | 2 kts | 70° |
| 2026-04-26 23:42 | 39.57927 | -104.84981 | 5815 ft | 9 kts | 344° |
| 2026-04-26 23:42 | 39.57975 | -104.84985 | 5816 ft | 6 kts | 358° |
| 2026-04-26 23:43 | 39.58075 | -104.84991 | 5809 ft | 27 kts | 357° |
| 2026-04-26 23:43 | 39.58252 | -104.84998 | 5810 ft | 17 kts | 356° |
| 2026-04-26 23:43 | 39.58334 | -104.85003 | 5800 ft | 11 kts | 358° |
| 2026-04-26 23:43 | 39.58408 | -104.85013 | 5798 ft | 8 kts | 303° |
| 2026-04-26 23:44 | 39.58410 | -104.85017 | 5798 ft | 0 kts | 294° |
| 2026-04-26 23:44 | 39.58412 | -104.85030 | 5798 ft | 6 kts | 270° |
| 2026-04-26 23:44 | 39.58403 | -104.85139 | 5798 ft | 13 kts | 229° |
| 2026-04-26 23:44 | 39.58236 | -104.85140 | 5803 ft | 50 kts | 178° |
| 2026-04-26 23:45 | 39.57678 | -104.85115 | 5849 ft | 105 kts | 178° |
| 2026-04-26 23:45 | 39.56810 | -104.85126 | 6100 ft | 142 kts | 182° |
| 2026-04-26 23:45 | 39.55777 | -104.85248 | 6691 ft | 151 kts | 187° |
| 2026-04-26 23:45 | 39.54746 | -104.85121 | 7342 ft | 156 kts | 158° |
| 2026-04-26 23:46 | 39.53659 | -104.84640 | 7770 ft | 174 kts | 162° |
| 2026-04-26 23:46 | 39.52410 | -104.84315 | 8145 ft | 190 kts | 170° |
| 2026-04-26 23:46 | 39.51321 | -104.83508 | 8706 ft | 187 kts | 120° |
| 2026-04-26 23:46 | 39.51212 | -104.81828 | 9090 ft | 199 kts | 80° |
| 2026-04-26 23:47 | 39.51536 | -104.80066 | 9535 ft | 202 kts | 78° |
| 2026-04-26 23:47 | 39.51899 | -104.78286 | 9915 ft | 207 kts | 78° |
| 2026-04-26 23:47 | 39.52281 | -104.76478 | 10330 ft | 209 kts | 78° |
| 2026-04-26 23:47 | 39.52680 | -104.74657 | 10768 ft | 212 kts | 77° |
| 2026-04-26 23:48 | 39.53087 | -104.72806 | 11227 ft | 216 kts | 77° |
| 2026-04-26 23:48 | 39.53502 | -104.70917 | 11691 ft | 220 kts | 77° |
| 2026-04-26 23:48 | 39.53924 | -104.68998 | 12150 ft | 223 kts | 77° |
| 2026-04-26 23:48 | 39.54350 | -104.67053 | 12612 ft | 226 kts | 77° |
| 2026-04-26 23:49 | 39.54990 | -104.65183 | 13064 ft | 231 kts | 58° |
| 2026-04-26 23:49 | 39.55917 | -104.63476 | 13530 ft | 232 kts | 55° |
| 2026-04-26 23:49 | 39.56865 | -104.61776 | 13988 ft | 233 kts | 56° |
| 2026-04-26 23:49 | 39.57814 | -104.60060 | 14443 ft | 235 kts | 56° |
| 2026-04-26 23:50 | 39.58759 | -104.58334 | 14900 ft | 235 kts | 56° |
| 2026-04-26 23:50 | 39.59700 | -104.56603 | 15348 ft | 235 kts | 56° |
| 2026-04-26 23:50 | 39.60637 | -104.54869 | 15781 ft | 235 kts | 56° |
| 2026-04-26 23:50 | 39.61575 | -104.53132 | 16212 ft | 235 kts | 56° |
| 2026-04-26 23:51 | 39.62515 | -104.51390 | 16647 ft | 236 kts | 56° |
| 2026-04-26 23:51 | 39.63455 | -104.49644 | 17073 ft | 236 kts | 56° |
| 2026-04-26 23:51 | 39.64394 | -104.47901 | 17485 ft | 236 kts | 56° |
| 2026-04-26 23:51 | 39.65335 | -104.46152 | 17893 ft | 236 kts | 56° |
| 2026-04-26 23:52 | 39.66272 | -104.44409 | 18285 ft | 235 kts | 56° |
| 2026-04-26 23:52 | 39.67208 | -104.42669 | 18670 ft | 235 kts | 56° |
| 2026-04-26 23:52 | 39.68143 | -104.40934 | 19047 ft | 235 kts | 57° |
| 2026-04-26 23:52 | 39.69078 | -104.39195 | 19424 ft | 235 kts | 57° |
| 2026-04-26 23:53 | 39.70011 | -104.37455 | 19795 ft | 235 kts | 57° |
| 2026-04-26 23:53 | 39.70943 | -104.35715 | 20158 ft | 235 kts | 57° |
| 2026-04-26 23:53 | 39.71866 | -104.33994 | 20517 ft | 236 kts | 57° |
| 2026-04-26 23:53 | 39.72815 | -104.32221 | 20686 ft | 246 kts | 57° |
| 2026-04-26 23:54 | 39.73818 | -104.30341 | 20714 ft | 259 kts | 57° |
| 2026-04-26 23:54 | 39.74866 | -104.28373 | 20725 ft | 270 kts | 57° |
| 2026-04-26 23:54 | 39.75950 | -104.26339 | 20728 ft | 277 kts | 57° |
| 2026-04-26 23:54 | 39.77059 | -104.24261 | 20727 ft | 282 kts | 57° |
| 2026-04-26 23:55 | 39.78183 | -104.22152 | 20726 ft | 285 kts | 57° |
| 2026-04-26 23:55 | 39.79318 | -104.20023 | 20726 ft | 287 kts | 57° |
| 2026-04-26 23:55 | 39.80460 | -104.17879 | 20726 ft | 289 kts | 57° |
| 2026-04-26 23:55 | 39.81607 | -104.15727 | 20727 ft | 290 kts | 57° |
| 2026-04-26 23:56 | 39.82758 | -104.13564 | 20728 ft | 291 kts | 57° |
| 2026-04-26 23:56 | 39.83913 | -104.11395 | 20728 ft | 292 kts | 57° |
| 2026-04-26 23:56 | 39.85067 | -104.09223 | 20729 ft | 292 kts | 57° |
| 2026-04-26 23:56 | 39.86222 | -104.07049 | 20729 ft | 292 kts | 57° |
| 2026-04-26 23:57 | 39.87378 | -104.04871 | 20729 ft | 292 kts | 57° |
| 2026-04-26 23:57 | 39.88533 | -104.02696 | 20729 ft | 292 kts | 57° |
| 2026-04-26 23:57 | 39.89689 | -104.00514 | 20730 ft | 292 kts | 57° |
| 2026-04-26 23:57 | 39.90842 | -103.98338 | 20729 ft | 292 kts | 57° |
| 2026-04-26 23:58 | 39.91996 | -103.96157 | 20730 ft | 292 kts | 57° |
| 2026-04-26 23:58 | 39.93149 | -103.93980 | 20724 ft | 292 kts | 57° |
| 2026-04-26 23:58 | 39.94301 | -103.91802 | 20726 ft | 292 kts | 57° |
| 2026-04-26 23:58 | 39.95451 | -103.89626 | 20727 ft | 291 kts | 57° |
| 2026-04-26 23:59 | 39.96599 | -103.87453 | 20728 ft | 291 kts | 57° |
| 2026-04-26 23:59 | 39.97748 | -103.85276 | 20728 ft | 291 kts | 57° |
| 2026-04-26 23:59 | 39.98894 | -103.83102 | 20730 ft | 291 kts | 57° |
| 2026-04-26 23:59 | 40.00040 | -103.80928 | 20729 ft | 291 kts | 57° |
| 2026-04-27 00:00 | 40.01182 | -103.78751 | 20729 ft | 291 kts | 58° |
| 2026-04-27 00:00 | 40.02154 | -103.76452 | 20729 ft | 288 kts | 69° |
| 2026-04-27 00:00 | 40.02837 | -103.74009 | 20731 ft | 286 kts | 76° |
| 2026-04-27 00:00 | 40.03408 | -103.71524 | 20730 ft | 286 kts | 77° |
| 2026-04-27 00:01 | 40.03969 | -103.69035 | 20730 ft | 286 kts | 77° |
| 2026-04-27 00:01 | 40.04530 | -103.66545 | 20729 ft | 286 kts | 77° |
| 2026-04-27 00:01 | 40.05095 | -103.64057 | 20729 ft | 286 kts | 77° |
| 2026-04-27 00:01 | 40.05662 | -103.61568 | 20730 ft | 287 kts | 77° |
| 2026-04-27 00:02 | 40.06230 | -103.59074 | 20730 ft | 287 kts | 77° |
| 2026-04-27 00:02 | 40.06797 | -103.56582 | 20730 ft | 286 kts | 77° |
| 2026-04-27 00:02 | 40.07365 | -103.54090 | 20730 ft | 286 kts | 77° |
| 2026-04-27 00:02 | 40.07934 | -103.51597 | 20728 ft | 286 kts | 77° |
| 2026-04-27 00:03 | 40.08497 | -103.49108 | 20730 ft | 286 kts | 77° |
| 2026-04-27 00:03 | 40.09065 | -103.46612 | 20735 ft | 286 kts | 77° |
| 2026-04-27 00:03 | 40.09626 | -103.44165 | 20737 ft | 286 kts | 77° |
| 2026-04-27 00:03 | 40.10187 | -103.41659 | 20738 ft | 289 kts | 77° |
| 2026-04-27 00:04 | 40.10760 | -103.39156 | 20737 ft | 287 kts | 77° |
| 2026-04-27 00:04 | 40.11322 | -103.36669 | 20738 ft | 283 kts | 77° |
| 2026-04-27 00:04 | 40.11875 | -103.34192 | 20738 ft | 285 kts | 77° |
| 2026-04-27 00:04 | 40.12434 | -103.31709 | 20740 ft | 285 kts | 77° |
| 2026-04-27 00:05 | 40.12996 | -103.29223 | 20739 ft | 286 kts | 77° |
| 2026-04-27 00:05 | 40.13557 | -103.26733 | 20739 ft | 286 kts | 77° |
| 2026-04-27 00:05 | 40.14121 | -103.24230 | 20738 ft | 287 kts | 77° |
| 2026-04-27 00:05 | 40.14684 | -103.21728 | 20739 ft | 287 kts | 77° |
| 2026-04-27 00:06 | 40.15236 | -103.19223 | 20738 ft | 287 kts | 78° |
| 2026-04-27 00:06 | 40.15704 | -103.16679 | 20578 ft | 292 kts | 82° |
| 2026-04-27 00:06 | 40.16075 | -103.14087 | 20611 ft | 289 kts | 83° |
| 2026-04-27 00:06 | 40.16436 | -103.11477 | 20388 ft | 296 kts | 83° |
| 2026-04-27 00:07 | 40.16803 | -103.08812 | 20168 ft | 299 kts | 83° |
| 2026-04-27 00:07 | 40.17177 | -103.06142 | 19940 ft | 295 kts | 83° |
| 2026-04-27 00:07 | 40.17570 | -103.03539 | 19711 ft | 289 kts | 78° |
| 2026-04-27 00:07 | 40.18454 | -103.01220 | 19481 ft | 285 kts | 51° |
| 2026-04-27 00:08 | 40.19974 | -102.99589 | 19261 ft | 282 kts | 30° |
| 2026-04-27 00:08 | 40.21614 | -102.98184 | 19036 ft | 283 kts | 34° |
| 2026-04-27 00:08 | 40.23179 | -102.96646 | 18810 ft | 280 kts | 37° |
| 2026-04-27 00:08 | 40.24718 | -102.95088 | 18586 ft | 280 kts | 37° |
| 2026-04-27 00:09 | 40.26250 | -102.93531 | 18361 ft | 278 kts | 37° |
| 2026-04-27 00:09 | 40.27786 | -102.91963 | 18136 ft | 283 kts | 37° |
| 2026-04-27 00:09 | 40.29355 | -102.90378 | 17912 ft | 287 kts | 37° |
| 2026-04-27 00:09 | 40.30946 | -102.88781 | 17687 ft | 289 kts | 36° |
| 2026-04-27 00:10 | 40.32554 | -102.87180 | 17461 ft | 291 kts | 36° |
| 2026-04-27 00:10 | 40.34161 | -102.85581 | 17234 ft | 289 kts | 36° |
| 2026-04-27 00:10 | 40.35765 | -102.83989 | 17007 ft | 289 kts | 36° |
| 2026-04-27 00:10 | 40.37366 | -102.82400 | 16780 ft | 288 kts | 36° |
| 2026-04-27 00:11 | 40.38963 | -102.80812 | 16557 ft | 287 kts | 36° |
| 2026-04-27 00:11 | 40.40549 | -102.79237 | 16330 ft | 285 kts | 37° |
| 2026-04-27 00:11 | 40.42123 | -102.77672 | 16106 ft | 283 kts | 37° |
| 2026-04-27 00:11 | 40.43675 | -102.76128 | 16026 ft | 274 kts | 36° |
| 2026-04-27 00:12 | 40.45189 | -102.74637 | 16011 ft | 270 kts | 36° |
| 2026-04-27 00:12 | 40.46684 | -102.73153 | 16002 ft | 268 kts | 37° |
| 2026-04-27 00:12 | 40.48150 | -102.71692 | 16000 ft | 263 kts | 36° |
| 2026-04-27 00:12 | 40.49583 | -102.70247 | 16001 ft | 258 kts | 37° |
| 2026-04-27 00:13 | 40.51021 | -102.68793 | 15797 ft | 264 kts | 37° |
| 2026-04-27 00:13 | 40.52501 | -102.67319 | 15546 ft | 269 kts | 36° |
| 2026-04-27 00:13 | 40.54005 | -102.65819 | 15295 ft | 273 kts | 36° |
| 2026-04-27 00:13 | 40.55533 | -102.64297 | 15044 ft | 278 kts | 36° |
| 2026-04-27 00:14 | 40.57089 | -102.62743 | 14793 ft | 283 kts | 36° |
| 2026-04-27 00:14 | 40.58668 | -102.61162 | 14543 ft | 287 kts | 37° |
| 2026-04-27 00:14 | 40.60260 | -102.59566 | 14294 ft | 288 kts | 37° |
| 2026-04-27 00:14 | 40.61857 | -102.57962 | 14044 ft | 289 kts | 36° |
| 2026-04-27 00:15 | 40.63454 | -102.56358 | 13790 ft | 287 kts | 37° |
| 2026-04-27 00:15 | 40.65036 | -102.54769 | 13541 ft | 284 kts | 36° |
| 2026-04-27 00:15 | 40.66597 | -102.53201 | 13285 ft | 281 kts | 37° |
| 2026-04-27 00:15 | 40.68143 | -102.51648 | 13036 ft | 278 kts | 37° |
| 2026-04-27 00:16 | 40.69159 | -102.50626 | 12872 ft | 277 kts | 37° |
| 2026-04-27 00:16 | 40.70688 | -102.49088 | 12621 ft | 276 kts | 37° |
| 2026-04-27 00:16 | 40.72206 | -102.47560 | 12341 ft | 272 kts | 37° |
| 2026-04-27 00:16 | 40.73687 | -102.46071 | 12035 ft | 265 kts | 37° |
| 2026-04-27 00:17 | 40.75134 | -102.44613 | 11726 ft | 259 kts | 37° |
| 2026-04-27 00:17 | 40.76557 | -102.43181 | 11434 ft | 256 kts | 37° |
| 2026-04-27 00:17 | 40.77961 | -102.41767 | 11133 ft | 252 kts | 37° |
| 2026-04-27 00:17 | 40.79788 | -102.39923 | 10737 ft | 248 kts | 38° |
| 2026-04-27 00:18 | 40.80708 | -102.38995 | 10532 ft | 245 kts | 38° |
| 2026-04-27 00:18 | 40.82049 | -102.37638 | 10232 ft | 241 kts | 39° |
| 2026-04-27 00:18 | 40.83375 | -102.36297 | 9932 ft | 239 kts | 39° |
| 2026-04-27 00:18 | 40.84665 | -102.34994 | 9637 ft | 235 kts | 39° |
| 2026-04-27 00:19 | 40.85953 | -102.33697 | 9336 ft | 231 kts | 39° |
| 2026-04-27 00:19 | 40.87213 | -102.32436 | 9032 ft | 224 kts | 40° |
| 2026-04-27 00:19 | 40.88442 | -102.31201 | 8731 ft | 220 kts | 40° |
| 2026-04-27 00:19 | 40.89651 | -102.29981 | 8430 ft | 217 kts | 40° |
| 2026-04-27 00:20 | 40.90840 | -102.28778 | 8129 ft | 214 kts | 40° |
| 2026-04-27 00:20 | 40.92014 | -102.27591 | 7828 ft | 211 kts | 40° |
| 2026-04-27 00:20 | 40.93174 | -102.26417 | 7522 ft | 209 kts | 40° |
| 2026-04-27 00:20 | 40.94319 | -102.25252 | 7228 ft | 207 kts | 40° |
| 2026-04-27 00:21 | 40.95456 | -102.24097 | 6926 ft | 205 kts | 40° |
| 2026-04-27 00:21 | 40.96580 | -102.22955 | 6626 ft | 202 kts | 40° |
| 2026-04-27 00:21 | 40.97689 | -102.21825 | 6327 ft | 200 kts | 40° |
| 2026-04-27 00:21 | 40.98789 | -102.20708 | 6026 ft | 198 kts | 40° |
| 2026-04-27 00:22 | 40.99877 | -102.19600 | 5747 ft | 198 kts | 40° |
| 2026-04-27 00:22 | 41.00993 | -102.18458 | 5528 ft | 208 kts | 40° |
| 2026-04-27 00:22 | 41.02153 | -102.17269 | 5407 ft | 210 kts | 40° |
| 2026-04-27 00:22 | 41.03295 | -102.16096 | 5391 ft | 205 kts | 40° |
| 2026-04-27 00:23 | 41.04417 | -102.14945 | 5378 ft | 203 kts | 40° |
| 2026-04-27 00:23 | 41.05533 | -102.13806 | 5376 ft | 202 kts | 40° |
| 2026-04-27 00:23 | 41.06643 | -102.12673 | 5372 ft | 201 kts | 40° |
| 2026-04-27 00:23 | 41.07754 | -102.11541 | 5374 ft | 201 kts | 39° |
| 2026-04-27 00:24 | 41.08864 | -102.10412 | 5378 ft | 201 kts | 39° |
| 2026-04-27 00:24 | 41.09976 | -102.09283 | 5379 ft | 201 kts | 39° |
| 2026-04-27 00:24 | 41.11021 | -102.08064 | 5379 ft | 199 kts | 53° |
| 2026-04-27 00:24 | 41.11616 | -102.06442 | 5380 ft | 196 kts | 78° |
| 2026-04-27 00:25 | 41.11719 | -102.04660 | 5382 ft | 194 kts | 92° |
| 2026-04-27 00:25 | 41.11708 | -102.02867 | 5381 ft | 195 kts | 91° |
| 2026-04-27 00:25 | 41.11721 | -102.01155 | 5303 ft | 172 kts | 91° |
| 2026-04-27 00:25 | 41.11732 | -101.99584 | 5220 ft | 172 kts | 91° |
| 2026-04-27 00:26 | 41.11739 | -101.97986 | 5146 ft | 174 kts | 91° |
| 2026-04-27 00:26 | 41.11746 | -101.96373 | 5075 ft | 176 kts | 91° |
| 2026-04-27 00:26 | 41.11750 | -101.94747 | 5002 ft | 176 kts | 91° |
| 2026-04-27 00:26 | 41.11753 | -101.93126 | 4981 ft | 175 kts | 91° |
| 2026-04-27 00:27 | 41.11755 | -101.91532 | 4962 ft | 175 kts | 91° |
| 2026-04-27 00:27 | 41.11766 | -101.89920 | 4938 ft | 175 kts | 91° |
| 2026-04-27 00:27 | 41.11771 | -101.88442 | 4796 ft | 141 kts | 91° |
| 2026-04-27 00:27 | 41.11772 | -101.87227 | 4625 ft | 126 kts | 92° |
| 2026-04-27 00:28 | 41.11764 | -101.86074 | 4458 ft | 125 kts | 92° |
| 2026-04-27 00:28 | 41.11764 | -101.84926 | 4290 ft | 123 kts | 91° |
| 2026-04-27 00:28 | 41.11776 | -101.83855 | 4147 ft | 107 kts | 89° |
| 2026-04-27 00:28 | 41.11780 | -101.82901 | 4058 ft | 106 kts | 90° |
| 2026-04-27 00:29 | 41.11778 | -101.81898 | 3936 ft | 110 kts | 90° |
| 2026-04-27 00:29 | 41.11779 | -101.80884 | 3751 ft | 108 kts | 89° |
| 2026-04-27 00:29 | 41.11787 | -101.79910 | 3597 ft | 105 kts | 90° |
| 2026-04-27 00:29 | 41.11780 | -101.78953 | 3428 ft | 103 kts | 90° |
| 2026-04-27 00:30 | 41.11781 | -101.77986 | 3290 ft | 104 kts | 89° |
| 2026-04-27 00:30 | 41.11782 | -101.77332 | 3265 ft | 38 kts | 90° |
| 2026-04-27 00:30 | 41.11782 | -101.77010 | 3261 ft | 40 kts | 89° |
| 2026-04-27 00:30 | 41.11782 | -101.76629 | 3257 ft | 28 kts | 90° |
| 2026-04-27 00:31 | 41.11782 | -101.76394 | 3253 ft | 21 kts | 90° |
| 2026-04-27 00:31 | 41.11819 | -101.76272 | 3254 ft | 13 kts | 1° |
| 2026-04-27 00:31 | 41.11913 | -101.76261 | 3255 ft | 12 kts | 46° |
| 2026-04-27 00:31 | 41.11936 | -101.76168 | 3255 ft | 10 kts | 18° |
| 2026-04-27 00:32 | 41.11962 | -101.76168 | 3255 ft | 0 kts | 356° |